sensor_id;sensor_type;location;lat;lon;timestamp;temperature;humidity
59961;DHT22;55902;-37.980;-63.602;2023-04-24T00:00:44;15.70;99.30
59961;DHT22;55902;-37.980;-63.602;2023-04-24T00:03:11;15.60;99.40
59961;DHT22;55902;-37.980;-63.602;2023-04-24T00:05:39;15.60;99.50
59961;DHT22;55902;-37.980;-63.602;2023-04-24T00:08:06;15.50;99.70
59961;DHT22;55902;-37.980;-63.602;2023-04-24T00:10:33;15.50;99.50
59961;DHT22;55902;-37.980;-63.602;2023-04-24T00:13:01;15.40;99.80
59961;DHT22;55902;-37.980;-63.602;2023-04-24T00:15:28;15.40;99.70
59961;DHT22;55902;-37.980;-63.602;2023-04-24T00:17:55;15.30;99.60
59961;DHT22;55902;-37.980;-63.602;2023-04-24T00:20:22;15.30;99.70
59961;DHT22;55902;-37.980;-63.602;2023-04-24T00:22:49;15.30;99.40
59961;DHT22;55902;-37.980;-63.602;2023-04-24T00:25:16;15.30;99.40
59961;DHT22;55902;-37.980;-63.602;2023-04-24T00:27:43;15.30;99.60
59961;DHT22;55902;-37.980;-63.602;2023-04-24T00:30:10;15.30;99.50
59961;DHT22;55902;-37.980;-63.602;2023-04-24T00:32:37;15.20;99.60
59961;DHT22;55902;-37.980;-63.602;2023-04-24T00:35:05;15.20;99.70
59961;DHT22;55902;-37.980;-63.602;2023-04-24T00:37:32;15.20;99.20
59961;DHT22;55902;-37.980;-63.602;2023-04-24T00:39:59;15.10;99.10
59961;DHT22;55902;-37.980;-63.602;2023-04-24T00:42:26;15.00;99.50
59961;DHT22;55902;-37.980;-63.602;2023-04-24T00:44:53;14.90;99.20
59961;DHT22;55902;-37.980;-63.602;2023-04-24T00:47:21;14.70;99.40
59961;DHT22;55902;-37.980;-63.602;2023-04-24T00:49:51;14.70;99.20
59961;DHT22;55902;-37.980;-63.602;2023-04-24T00:52:18;14.50;99.40
59961;DHT22;55902;-37.980;-63.602;2023-04-24T00:54:45;14.40;99.70
59961;DHT22;55902;-37.980;-63.602;2023-04-24T00:57:13;14.30;99.80
59961;DHT22;55902;-37.980;-63.602;2023-04-24T00:59:42;14.30;99.90
59961;DHT22;55902;-37.980;-63.602;2023-04-24T01:02:10;14.20;99.90
59961;DHT22;55902;-37.980;-63.602;2023-04-24T01:04:38;14.10;99.90
59961;DHT22;55902;-37.980;-63.602;2023-04-24T01:07:05;14.10;99.90
59961;DHT22;55902;-37.980;-63.602;2023-04-24T01:09:41;14.00;99.90
59961;DHT22;55902;-37.980;-63.602;2023-04-24T01:15:30;13.90;99.90
59961;DHT22;55902;-37.980;-63.602;2023-04-24T01:17:58;13.80;99.90
59961;DHT22;55902;-37.980;-63.602;2023-04-24T01:20:25;13.80;99.90
59961;DHT22;55902;-37.980;-63.602;2023-04-24T01:22:55;13.80;99.90
59961;DHT22;55902;-37.980;-63.602;2023-04-24T01:25:23;13.80;99.90
59961;DHT22;55902;-37.980;-63.602;2023-04-24T01:27:51;13.80;99.90
59961;DHT22;55902;-37.980;-63.602;2023-04-24T01:30:18;13.80;99.90
59961;DHT22;55902;-37.980;-63.602;2023-04-24T01:32:46;13.80;99.90
59961;DHT22;55902;-37.980;-63.602;2023-04-24T01:35:13;13.70;99.90
59961;DHT22;55902;-37.980;-63.602;2023-04-24T01:37:40;13.70;99.90
59961;DHT22;55902;-37.980;-63.602;2023-04-24T01:40:08;13.70;99.90
59961;DHT22;55902;-37.980;-63.602;2023-04-24T01:42:35;13.70;99.90
59961;DHT22;55902;-37.980;-63.602;2023-04-24T01:45:04;13.70;99.90
59961;DHT22;55902;-37.980;-63.602;2023-04-24T01:47:31;13.70;99.90
59961;DHT22;55902;-37.980;-63.602;2023-04-24T01:49:58;13.70;99.90
59961;DHT22;55902;-37.980;-63.602;2023-04-24T01:52:26;13.70;99.90
59961;DHT22;55902;-37.980;-63.602;2023-04-24T01:54:53;13.60;99.90
59961;DHT22;55902;-37.980;-63.602;2023-04-24T01:57:22;13.60;99.90
59961;DHT22;55902;-37.980;-63.602;2023-04-24T01:59:49;13.60;99.90
59961;DHT22;55902;-37.980;-63.602;2023-04-24T02:02:16;13.60;99.90
59961;DHT22;55902;-37.980;-63.602;2023-04-24T02:04:43;13.50;99.90
59961;DHT22;55902;-37.980;-63.602;2023-04-24T02:07:10;13.50;99.90
59961;DHT22;55902;-37.980;-63.602;2023-04-24T02:09:37;13.50;99.90
59961;DHT22;55902;-37.980;-63.602;2023-04-24T02:12:04;13.50;99.90
59961;DHT22;55902;-37.980;-63.602;2023-04-24T02:14:31;13.40;99.90
59961;DHT22;55902;-37.980;-63.602;2023-04-24T02:16:58;13.40;99.90
59961;DHT22;55902;-37.980;-63.602;2023-04-24T02:19:25;13.40;99.90
59961;DHT22;55902;-37.980;-63.602;2023-04-24T02:21:52;13.30;99.90
59961;DHT22;55902;-37.980;-63.602;2023-04-24T02:24:19;13.30;99.90
59961;DHT22;55902;-37.980;-63.602;2023-04-24T02:26:46;13.20;99.90
59961;DHT22;55902;-37.980;-63.602;2023-04-24T02:29:13;13.20;99.90
59961;DHT22;55902;-37.980;-63.602;2023-04-24T02:31:41;13.20;99.90
59961;DHT22;55902;-37.980;-63.602;2023-04-24T02:34:08;13.10;99.90
59961;DHT22;55902;-37.980;-63.602;2023-04-24T02:36:35;13.10;99.90
59961;DHT22;55902;-37.980;-63.602;2023-04-24T02:39:02;13.00;99.90
59961;DHT22;55902;-37.980;-63.602;2023-04-24T02:41:29;13.00;99.90
59961;DHT22;55902;-37.980;-63.602;2023-04-24T02:43:59;13.00;99.90
59961;DHT22;55902;-37.980;-63.602;2023-04-24T02:46:26;13.00;99.90
59961;DHT22;55902;-37.980;-63.602;2023-04-24T02:48:56;13.00;99.90
59961;DHT22;55902;-37.980;-63.602;2023-04-24T02:51:23;13.00;99.90
59961;DHT22;55902;-37.980;-63.602;2023-04-24T02:53:51;12.90;99.90
59961;DHT22;55902;-37.980;-63.602;2023-04-24T02:56:18;12.90;99.90
59961;DHT22;55902;-37.980;-63.602;2023-04-24T02:58:45;12.90;99.90
59961;DHT22;55902;-37.980;-63.602;2023-04-24T03:01:12;12.90;99.90
59961;DHT22;55902;-37.980;-63.602;2023-04-24T03:03:39;12.80;99.90
59961;DHT22;55902;-37.980;-63.602;2023-04-24T03:06:06;12.80;99.90
59961;DHT22;55902;-37.980;-63.602;2023-04-24T03:08:34;12.70;99.90
59961;DHT22;55902;-37.980;-63.602;2023-04-24T03:11:01;12.70;99.90
59961;DHT22;55902;-37.980;-63.602;2023-04-24T03:13:28;12.70;99.90
59961;DHT22;55902;-37.980;-63.602;2023-04-24T03:15:55;12.70;99.90
59961;DHT22;55902;-37.980;-63.602;2023-04-24T03:18:22;12.60;99.90
59961;DHT22;55902;-37.980;-63.602;2023-04-24T03:20:50;12.60;99.90
59961;DHT22;55902;-37.980;-63.602;2023-04-24T03:23:17;12.60;99.90
59961;DHT22;55902;-37.980;-63.602;2023-04-24T03:25:44;12.60;99.90
59961;DHT22;55902;-37.980;-63.602;2023-04-24T03:28:11;12.50;99.90
59961;DHT22;55902;-37.980;-63.602;2023-04-24T03:30:38;12.50;99.90
59961;DHT22;55902;-37.980;-63.602;2023-04-24T03:33:06;12.50;99.90
59961;DHT22;55902;-37.980;-63.602;2023-04-24T03:35:33;12.50;99.90
59961;DHT22;55902;-37.980;-63.602;2023-04-24T03:38:00;12.50;99.90
59961;DHT22;55902;-37.980;-63.602;2023-04-24T03:40:27;12.40;99.90
59961;DHT22;55902;-37.980;-63.602;2023-04-24T03:42:58;12.40;99.90
59961;DHT22;55902;-37.980;-63.602;2023-04-24T03:45:25;12.40;99.90
59961;DHT22;55902;-37.980;-63.602;2023-04-24T03:47:52;12.40;99.90
59961;DHT22;55902;-37.980;-63.602;2023-04-24T03:50:19;12.40;99.90
59961;DHT22;55902;-37.980;-63.602;2023-04-24T03:52:46;12.30;99.90
59961;DHT22;55902;-37.980;-63.602;2023-04-24T03:55:13;12.40;99.90
59961;DHT22;55902;-37.980;-63.602;2023-04-24T03:57:41;12.30;99.90
59961;DHT22;55902;-37.980;-63.602;2023-04-24T04:00:08;12.30;99.90
59961;DHT22;55902;-37.980;-63.602;2023-04-24T04:02:36;12.30;99.90
59961;DHT22;55902;-37.980;-63.602;2023-04-24T04:05:03;12.30;99.90
59961;DHT22;55902;-37.980;-63.602;2023-04-24T04:07:30;12.30;99.90
59961;DHT22;55902;-37.980;-63.602;2023-04-24T04:09:57;12.20;99.90
59961;DHT22;55902;-37.980;-63.602;2023-04-24T04:12:24;12.30;99.90
59961;DHT22;55902;-37.980;-63.602;2023-04-24T04:14:51;12.30;99.90
59961;DHT22;55902;-37.980;-63.602;2023-04-24T04:17:18;12.20;99.90
59961;DHT22;55902;-37.980;-63.602;2023-04-24T04:19:45;12.20;99.90
59961;DHT22;55902;-37.980;-63.602;2023-04-24T04:22:12;12.20;99.90
59961;DHT22;55902;-37.980;-63.602;2023-04-24T04:24:38;12.20;99.90
59961;DHT22;55902;-37.980;-63.602;2023-04-24T04:27:07;12.10;99.90
59961;DHT22;55902;-37.980;-63.602;2023-04-24T04:29:34;12.10;99.90
59961;DHT22;55902;-37.980;-63.602;2023-04-24T04:32:02;12.00;99.90
59961;DHT22;55902;-37.980;-63.602;2023-04-24T04:34:29;12.10;99.90
59961;DHT22;55902;-37.980;-63.602;2023-04-24T04:36:58;12.10;99.90
59961;DHT22;55902;-37.980;-63.602;2023-04-24T04:39:28;12.10;99.90
59961;DHT22;55902;-37.980;-63.602;2023-04-24T04:41:55;12.00;99.90
59961;DHT22;55902;-37.980;-63.602;2023-04-24T04:44:23;11.90;99.90
59961;DHT22;55902;-37.980;-63.602;2023-04-24T04:46:50;11.90;99.90
59961;DHT22;55902;-37.980;-63.602;2023-04-24T04:49:19;11.90;99.90
59961;DHT22;55902;-37.980;-63.602;2023-04-24T04:51:48;11.80;99.90
59961;DHT22;55902;-37.980;-63.602;2023-04-24T04:54:15;11.80;99.90
59961;DHT22;55902;-37.980;-63.602;2023-04-24T04:56:42;11.80;99.90
59961;DHT22;55902;-37.980;-63.602;2023-04-24T04:59:09;11.70;99.90
59961;DHT22;55902;-37.980;-63.602;2023-04-24T05:01:37;11.70;99.90
59961;DHT22;55902;-37.980;-63.602;2023-04-24T05:04:04;11.60;99.90
59961;DHT22;55902;-37.980;-63.602;2023-04-24T05:06:31;11.50;99.90
59961;DHT22;55902;-37.980;-63.602;2023-04-24T05:08:58;11.50;99.90
59961;DHT22;55902;-37.980;-63.602;2023-04-24T05:11:25;11.40;99.90
59961;DHT22;55902;-37.980;-63.602;2023-04-24T05:13:52;11.40;99.90
59961;DHT22;55902;-37.980;-63.602;2023-04-24T05:16:19;11.40;99.90
59961;DHT22;55902;-37.980;-63.602;2023-04-24T05:18:46;11.40;99.90
59961;DHT22;55902;-37.980;-63.602;2023-04-24T05:21:13;11.40;99.90
59961;DHT22;55902;-37.980;-63.602;2023-04-24T05:23:40;11.30;99.90
59961;DHT22;55902;-37.980;-63.602;2023-04-24T05:26:07;11.30;99.90
59961;DHT22;55902;-37.980;-63.602;2023-04-24T05:28:34;11.40;99.90
59961;DHT22;55902;-37.980;-63.602;2023-04-24T05:31:03;11.40;99.90
59961;DHT22;55902;-37.980;-63.602;2023-04-24T05:33:30;11.40;99.90
59961;DHT22;55902;-37.980;-63.602;2023-04-24T05:35:57;11.40;99.90
59961;DHT22;55902;-37.980;-63.602;2023-04-24T05:38:24;11.40;99.90
59961;DHT22;55902;-37.980;-63.602;2023-04-24T05:40:51;11.30;99.90
59961;DHT22;55902;-37.980;-63.602;2023-04-24T05:43:18;11.30;99.90
59961;DHT22;55902;-37.980;-63.602;2023-04-24T05:45:45;11.40;99.90
59961;DHT22;55902;-37.980;-63.602;2023-04-24T05:48:12;11.40;99.90
59961;DHT22;55902;-37.980;-63.602;2023-04-24T05:50:39;11.30;99.90
59961;DHT22;55902;-37.980;-63.602;2023-04-24T05:53:06;11.30;99.90
59961;DHT22;55902;-37.980;-63.602;2023-04-24T05:55:33;11.30;99.90
59961;DHT22;55902;-37.980;-63.602;2023-04-24T05:58:00;11.30;99.90
59961;DHT22;55902;-37.980;-63.602;2023-04-24T06:00:27;11.30;99.90
59961;DHT22;55902;-37.980;-63.602;2023-04-24T06:02:54;11.30;99.90
59961;DHT22;55902;-37.980;-63.602;2023-04-24T06:05:22;11.30;99.90
59961;DHT22;55902;-37.980;-63.602;2023-04-24T06:07:49;11.30;99.90
59961;DHT22;55902;-37.980;-63.602;2023-04-24T06:10:16;11.30;99.90
59961;DHT22;55902;-37.980;-63.602;2023-04-24T06:12:43;11.30;99.90
59961;DHT22;55902;-37.980;-63.602;2023-04-24T06:15:13;11.20;99.90
59961;DHT22;55902;-37.980;-63.602;2023-04-24T06:17:40;11.20;99.90
59961;DHT22;55902;-37.980;-63.602;2023-04-24T06:20:07;11.20;99.90
59961;DHT22;55902;-37.980;-63.602;2023-04-24T06:22:34;11.20;99.90
59961;DHT22;55902;-37.980;-63.602;2023-04-24T06:25:01;11.20;99.90
59961;DHT22;55902;-37.980;-63.602;2023-04-24T06:27:28;11.20;99.90
59961;DHT22;55902;-37.980;-63.602;2023-04-24T06:29:55;11.10;99.90
59961;DHT22;55902;-37.980;-63.602;2023-04-24T06:32:23;11.10;99.90
59961;DHT22;55902;-37.980;-63.602;2023-04-24T06:34:53;11.10;99.90
59961;DHT22;55902;-37.980;-63.602;2023-04-24T06:37:21;11.10;99.90
59961;DHT22;55902;-37.980;-63.602;2023-04-24T06:39:48;11.10;99.90
59961;DHT22;55902;-37.980;-63.602;2023-04-24T06:42:15;11.10;99.90
59961;DHT22;55902;-37.980;-63.602;2023-04-24T06:44:42;11.10;99.90
59961;DHT22;55902;-37.980;-63.602;2023-04-24T06:47:09;11.10;99.90
59961;DHT22;55902;-37.980;-63.602;2023-04-24T06:49:38;11.10;99.90
59961;DHT22;55902;-37.980;-63.602;2023-04-24T06:52:06;11.10;99.90
59961;DHT22;55902;-37.980;-63.602;2023-04-24T06:54:33;11.10;99.90
59961;DHT22;55902;-37.980;-63.602;2023-04-24T06:57:00;11.10;99.90
59961;DHT22;55902;-37.980;-63.602;2023-04-24T06:59:29;11.10;99.90
59961;DHT22;55902;-37.980;-63.602;2023-04-24T07:01:57;11.10;99.90
59961;DHT22;55902;-37.980;-63.602;2023-04-24T07:04:24;11.10;99.90
59961;DHT22;55902;-37.980;-63.602;2023-04-24T07:10:13;11.10;99.90
59961;DHT22;55902;-37.980;-63.602;2023-04-24T07:12:40;11.10;99.90
59961;DHT22;55902;-37.980;-63.602;2023-04-24T07:15:08;11.10;99.90
59961;DHT22;55902;-37.980;-63.602;2023-04-24T07:17:35;11.10;99.90
59961;DHT22;55902;-37.980;-63.602;2023-04-24T07:20:05;11.10;99.90
59961;DHT22;55902;-37.980;-63.602;2023-04-24T07:22:38;11.10;99.90
59961;DHT22;55902;-37.980;-63.602;2023-04-24T07:25:05;11.10;99.90
59961;DHT22;55902;-37.980;-63.602;2023-04-24T07:27:33;11.10;99.90
59961;DHT22;55902;-37.980;-63.602;2023-04-24T07:30:05;11.10;99.90
59961;DHT22;55902;-37.980;-63.602;2023-04-24T07:32:33;11.10;99.90
59961;DHT22;55902;-37.980;-63.602;2023-04-24T07:35:00;11.10;99.90
59961;DHT22;55902;-37.980;-63.602;2023-04-24T07:37:27;11.10;99.90
59961;DHT22;55902;-37.980;-63.602;2023-04-24T07:39:54;11.10;99.90
59961;DHT22;55902;-37.980;-63.602;2023-04-24T07:42:22;11.10;99.90
59961;DHT22;55902;-37.980;-63.602;2023-04-24T07:44:49;11.10;99.90
59961;DHT22;55902;-37.980;-63.602;2023-04-24T07:47:17;11.00;99.90
59961;DHT22;55902;-37.980;-63.602;2023-04-24T07:49:44;10.90;99.90
59961;DHT22;55902;-37.980;-63.602;2023-04-24T07:52:11;10.90;99.90
59961;DHT22;55902;-37.980;-63.602;2023-04-24T07:54:38;10.90;99.90
59961;DHT22;55902;-37.980;-63.602;2023-04-24T07:57:05;10.80;99.90
59961;DHT22;55902;-37.980;-63.602;2023-04-24T07:59:33;10.80;99.90
59961;DHT22;55902;-37.980;-63.602;2023-04-24T08:01:59;10.80;99.90
59961;DHT22;55902;-37.980;-63.602;2023-04-24T08:04:28;10.70;99.90
59961;DHT22;55902;-37.980;-63.602;2023-04-24T08:06:54;10.70;99.90
59961;DHT22;55902;-37.980;-63.602;2023-04-24T08:09:21;10.70;99.90
59961;DHT22;55902;-37.980;-63.602;2023-04-24T08:11:48;10.60;99.90
59961;DHT22;55902;-37.980;-63.602;2023-04-24T08:14:16;10.60;99.90
59961;DHT22;55902;-37.980;-63.602;2023-04-24T08:16:42;10.60;99.90
59961;DHT22;55902;-37.980;-63.602;2023-04-24T08:19:10;10.60;99.90
59961;DHT22;55902;-37.980;-63.602;2023-04-24T08:21:36;10.60;99.90
59961;DHT22;55902;-37.980;-63.602;2023-04-24T08:24:03;10.60;99.90
59961;DHT22;55902;-37.980;-63.602;2023-04-24T08:26:34;10.60;99.90
59961;DHT22;55902;-37.980;-63.602;2023-04-24T08:29:01;10.60;99.90
59961;DHT22;55902;-37.980;-63.602;2023-04-24T08:31:28;10.60;99.90
59961;DHT22;55902;-37.980;-63.602;2023-04-24T08:33:55;10.60;99.90
59961;DHT22;55902;-37.980;-63.602;2023-04-24T08:36:22;10.60;99.90
59961;DHT22;55902;-37.980;-63.602;2023-04-24T08:38:50;10.60;99.90
59961;DHT22;55902;-37.980;-63.602;2023-04-24T08:41:18;10.60;99.90
59961;DHT22;55902;-37.980;-63.602;2023-04-24T08:43:49;10.50;99.90
59961;DHT22;55902;-37.980;-63.602;2023-04-24T08:46:18;10.50;99.90
59961;DHT22;55902;-37.980;-63.602;2023-04-24T08:48:45;10.50;99.90
59961;DHT22;55902;-37.980;-63.602;2023-04-24T08:51:15;10.40;99.90
59961;DHT22;55902;-37.980;-63.602;2023-04-24T08:53:44;10.40;99.90
59961;DHT22;55902;-37.980;-63.602;2023-04-24T08:56:12;10.40;99.90
59961;DHT22;55902;-37.980;-63.602;2023-04-24T08:58:39;10.40;99.90
59961;DHT22;55902;-37.980;-63.602;2023-04-24T09:01:07;10.30;99.90
59961;DHT22;55902;-37.980;-63.602;2023-04-24T09:03:35;10.20;99.90
59961;DHT22;55902;-37.980;-63.602;2023-04-24T09:06:03;10.20;99.90
59961;DHT22;55902;-37.980;-63.602;2023-04-24T09:08:31;10.10;99.90
59961;DHT22;55902;-37.980;-63.602;2023-04-24T09:10:59;10.10;99.90
59961;DHT22;55902;-37.980;-63.602;2023-04-24T09:13:29;10.10;99.90
59961;DHT22;55902;-37.980;-63.602;2023-04-24T09:15:56;10.00;99.90
59961;DHT22;55902;-37.980;-63.602;2023-04-24T09:18:23;9.90;99.90
59961;DHT22;55902;-37.980;-63.602;2023-04-24T09:21:09;9.90;99.90
59961;DHT22;55902;-37.980;-63.602;2023-04-24T09:23:36;9.80;99.90
59961;DHT22;55902;-37.980;-63.602;2023-04-24T09:26:04;9.80;99.90
59961;DHT22;55902;-37.980;-63.602;2023-04-24T09:28:39;9.70;99.90
59961;DHT22;55902;-37.980;-63.602;2023-04-24T09:31:14;9.70;99.90
59961;DHT22;55902;-37.980;-63.602;2023-04-24T09:43:57;9.70;99.90
59961;DHT22;55902;-37.980;-63.602;2023-04-24T09:46:32;9.60;99.90
59961;DHT22;55902;-37.980;-63.602;2023-04-24T09:49:14;9.60;99.90
59961;DHT22;55902;-37.980;-63.602;2023-04-24T09:51:42;9.50;99.90
59961;DHT22;55902;-37.980;-63.602;2023-04-24T09:54:17;9.50;99.90
59961;DHT22;55902;-37.980;-63.602;2023-04-24T09:56:47;9.50;99.90
59961;DHT22;55902;-37.980;-63.602;2023-04-24T09:59:16;9.40;99.90
59961;DHT22;55902;-37.980;-63.602;2023-04-24T10:01:43;9.40;99.90
59961;DHT22;55902;-37.980;-63.602;2023-04-24T10:04:20;9.40;99.90
59961;DHT22;55902;-37.980;-63.602;2023-04-24T10:06:48;9.40;99.90
59961;DHT22;55902;-37.980;-63.602;2023-04-24T10:09:23;9.30;99.90
59961;DHT22;55902;-37.980;-63.602;2023-04-24T10:11:53;9.30;99.90
59961;DHT22;55902;-37.980;-63.602;2023-04-24T10:14:22;9.30;99.90
59961;DHT22;55902;-37.980;-63.602;2023-04-24T10:16:52;9.30;99.90
59961;DHT22;55902;-37.980;-63.602;2023-04-24T10:19:20;9.30;99.90
59961;DHT22;55902;-37.980;-63.602;2023-04-24T10:21:49;9.30;99.90
59961;DHT22;55902;-37.980;-63.602;2023-04-24T10:24:19;9.30;99.90
59961;DHT22;55902;-37.980;-63.602;2023-04-24T10:26:49;9.20;99.90
59961;DHT22;55902;-37.980;-63.602;2023-04-24T10:29:18;9.20;99.90
59961;DHT22;55902;-37.980;-63.602;2023-04-24T10:31:45;9.20;99.90
59961;DHT22;55902;-37.980;-63.602;2023-04-24T10:34:14;9.20;99.90
59961;DHT22;55902;-37.980;-63.602;2023-04-24T10:36:44;9.10;99.90
59961;DHT22;55902;-37.980;-63.602;2023-04-24T10:39:14;9.00;99.90
59961;DHT22;55902;-37.980;-63.602;2023-04-24T10:41:45;9.00;99.90
59961;DHT22;55902;-37.980;-63.602;2023-04-24T10:44:16;9.00;99.90
59961;DHT22;55902;-37.980;-63.602;2023-04-24T10:46:46;9.00;99.90
59961;DHT22;55902;-37.980;-63.602;2023-04-24T10:49:16;9.00;99.90
59961;DHT22;55902;-37.980;-63.602;2023-04-24T10:52:06;8.90;99.90
59961;DHT22;55902;-37.980;-63.602;2023-04-24T10:59:51;8.90;99.90
59961;DHT22;55902;-37.980;-63.602;2023-04-24T11:02:36;8.90;99.90
59961;DHT22;55902;-37.980;-63.602;2023-04-24T11:05:05;9.00;99.90
59961;DHT22;55902;-37.980;-63.602;2023-04-24T11:08:10;9.00;99.90
59961;DHT22;55902;-37.980;-63.602;2023-04-24T11:11:00;9.00;99.90
59961;DHT22;55902;-37.980;-63.602;2023-04-24T11:16:52;9.10;99.90
59961;DHT22;55902;-37.980;-63.602;2023-04-24T11:19:22;9.20;99.90
59961;DHT22;55902;-37.980;-63.602;2023-04-24T11:22:02;9.30;99.90
59961;DHT22;55902;-37.980;-63.602;2023-04-24T11:24:38;9.40;99.90
59961;DHT22;55902;-37.980;-63.602;2023-04-24T11:27:06;9.40;99.90
59961;DHT22;55902;-37.980;-63.602;2023-04-24T11:34:52;9.70;99.90
59961;DHT22;55902;-37.980;-63.602;2023-04-24T11:37:19;9.70;99.90
59961;DHT22;55902;-37.980;-63.602;2023-04-24T11:39:46;9.80;99.90
59961;DHT22;55902;-37.980;-63.602;2023-04-24T11:42:16;9.90;99.90
59961;DHT22;55902;-37.980;-63.602;2023-04-24T11:44:43;10.00;99.90
59961;DHT22;55902;-37.980;-63.602;2023-04-24T11:47:11;10.10;99.90
59961;DHT22;55902;-37.980;-63.602;2023-04-24T11:49:38;10.40;99.90
59961;DHT22;55902;-37.980;-63.602;2023-04-24T11:52:06;10.70;99.90
59961;DHT22;55902;-37.980;-63.602;2023-04-24T11:54:33;11.10;99.90
59961;DHT22;55902;-37.980;-63.602;2023-04-24T11:57:04;11.40;99.90
59961;DHT22;55902;-37.980;-63.602;2023-04-24T11:59:38;11.70;99.90
59961;DHT22;55902;-37.980;-63.602;2023-04-24T12:02:06;12.10;99.90
59961;DHT22;55902;-37.980;-63.602;2023-04-24T12:04:40;12.40;99.90
59961;DHT22;55902;-37.980;-63.602;2023-04-24T12:07:07;12.60;99.90
59961;DHT22;55902;-37.980;-63.602;2023-04-24T12:12:16;13.10;99.90
59961;DHT22;55902;-37.980;-63.602;2023-04-24T12:17:23;13.60;99.90
59961;DHT22;55902;-37.980;-63.602;2023-04-24T12:19:50;13.90;99.90
59961;DHT22;55902;-37.980;-63.602;2023-04-24T12:22:18;14.10;99.90
59961;DHT22;55902;-37.980;-63.602;2023-04-24T12:24:59;14.30;99.90
59961;DHT22;55902;-37.980;-63.602;2023-04-24T12:27:32;14.60;99.90
59961;DHT22;55902;-37.980;-63.602;2023-04-24T12:30:04;14.80;99.90
59961;DHT22;55902;-37.980;-63.602;2023-04-24T12:32:33;15.00;99.90
59961;DHT22;55902;-37.980;-63.602;2023-04-24T12:35:06;15.30;99.90
59961;DHT22;55902;-37.980;-63.602;2023-04-24T12:37:34;15.50;99.90
59961;DHT22;55902;-37.980;-63.602;2023-04-24T12:40:05;15.70;99.90
59961;DHT22;55902;-37.980;-63.602;2023-04-24T12:42:33;15.90;99.90
59961;DHT22;55902;-37.980;-63.602;2023-04-24T12:45:04;16.00;99.90
59961;DHT22;55902;-37.980;-63.602;2023-04-24T12:47:33;16.20;99.90
59961;DHT22;55902;-37.980;-63.602;2023-04-24T12:50:02;16.30;99.90
59961;DHT22;55902;-37.980;-63.602;2023-04-24T12:52:52;16.50;99.90
59961;DHT22;55902;-37.980;-63.602;2023-04-24T12:55:19;16.70;99.90
59961;DHT22;55902;-37.980;-63.602;2023-04-24T12:57:51;16.80;99.90
59961;DHT22;55902;-37.980;-63.602;2023-04-24T13:00:21;16.90;99.90
59961;DHT22;55902;-37.980;-63.602;2023-04-24T13:02:48;17.10;99.90
59961;DHT22;55902;-37.980;-63.602;2023-04-24T13:05:16;17.20;99.90
59961;DHT22;55902;-37.980;-63.602;2023-04-24T13:07:51;17.40;99.90
59961;DHT22;55902;-37.980;-63.602;2023-04-24T13:10:18;17.60;99.90
59961;DHT22;55902;-37.980;-63.602;2023-04-24T13:12:46;17.70;99.90
59961;DHT22;55902;-37.980;-63.602;2023-04-24T13:15:19;17.80;99.90
59961;DHT22;55902;-37.980;-63.602;2023-04-24T13:17:47;17.90;99.90
59961;DHT22;55902;-37.980;-63.602;2023-04-24T13:20:14;18.00;99.90
59961;DHT22;55902;-37.980;-63.602;2023-04-24T13:22:43;18.10;99.90
59961;DHT22;55902;-37.980;-63.602;2023-04-24T13:25:11;18.40;99.90
59961;DHT22;55902;-37.980;-63.602;2023-04-24T13:27:39;18.60;99.90
59961;DHT22;55902;-37.980;-63.602;2023-04-24T13:30:07;18.80;99.90
59961;DHT22;55902;-37.980;-63.602;2023-04-24T13:32:34;19.00;99.90
59961;DHT22;55902;-37.980;-63.602;2023-04-24T13:35:01;19.10;99.90
59961;DHT22;55902;-37.980;-63.602;2023-04-24T13:37:28;19.40;99.90
59961;DHT22;55902;-37.980;-63.602;2023-04-24T13:39:55;19.50;99.90
59961;DHT22;55902;-37.980;-63.602;2023-04-24T13:42:23;19.70;99.90
59961;DHT22;55902;-37.980;-63.602;2023-04-24T13:44:50;19.80;99.90
59961;DHT22;55902;-37.980;-63.602;2023-04-24T13:47:19;19.90;99.90
59961;DHT22;55902;-37.980;-63.602;2023-04-24T13:49:46;19.80;99.90
59961;DHT22;55902;-37.980;-63.602;2023-04-24T13:52:13;19.80;99.90
59961;DHT22;55902;-37.980;-63.602;2023-04-24T13:54:40;20.00;99.90
59961;DHT22;55902;-37.980;-63.602;2023-04-24T13:57:07;20.10;99.90
59961;DHT22;55902;-37.980;-63.602;2023-04-24T13:59:38;20.20;99.90
59961;DHT22;55902;-37.980;-63.602;2023-04-24T14:02:14;20.20;99.90
59961;DHT22;55902;-37.980;-63.602;2023-04-24T14:05:07;20.30;99.90
59961;DHT22;55902;-37.980;-63.602;2023-04-24T14:07:35;20.80;99.90
59961;DHT22;55902;-37.980;-63.602;2023-04-24T14:10:02;20.80;99.90
59961;DHT22;55902;-37.980;-63.602;2023-04-24T14:12:30;20.90;99.90
59961;DHT22;55902;-37.980;-63.602;2023-04-24T14:14:57;21.10;99.90
59961;DHT22;55902;-37.980;-63.602;2023-04-24T14:17:25;21.30;99.90
59961;DHT22;55902;-37.980;-63.602;2023-04-24T14:19:53;21.50;99.90
59961;DHT22;55902;-37.980;-63.602;2023-04-24T14:22:22;21.60;99.90
59961;DHT22;55902;-37.980;-63.602;2023-04-24T14:24:49;21.80;99.90
59961;DHT22;55902;-37.980;-63.602;2023-04-24T14:27:17;22.20;99.90
59961;DHT22;55902;-37.980;-63.602;2023-04-24T14:29:46;22.30;99.60
59961;DHT22;55902;-37.980;-63.602;2023-04-24T14:32:14;22.50;99.10
59961;DHT22;55902;-37.980;-63.602;2023-04-24T14:34:42;22.60;98.70
59961;DHT22;55902;-37.980;-63.602;2023-04-24T14:37:12;22.70;98.00
59961;DHT22;55902;-37.980;-63.602;2023-04-24T14:39:40;22.60;97.70
59961;DHT22;55902;-37.980;-63.602;2023-04-24T14:42:07;22.60;98.40
59961;DHT22;55902;-37.980;-63.602;2023-04-24T14:44:38;23.00;99.30
59961;DHT22;55902;-37.980;-63.602;2023-04-24T14:47:06;23.30;98.10
59961;DHT22;55902;-37.980;-63.602;2023-04-24T14:49:36;23.30;97.00
59961;DHT22;55902;-37.980;-63.602;2023-04-24T14:52:03;23.50;96.70
59961;DHT22;55902;-37.980;-63.602;2023-04-24T14:54:30;23.80;96.90
59961;DHT22;55902;-37.980;-63.602;2023-04-24T14:56:57;24.10;97.30
59961;DHT22;55902;-37.980;-63.602;2023-04-24T14:59:24;24.30;96.10
59961;DHT22;55902;-37.980;-63.602;2023-04-24T15:01:55;24.40;95.60
59961;DHT22;55902;-37.980;-63.602;2023-04-24T15:04:28;24.60;96.40
59961;DHT22;55902;-37.980;-63.602;2023-04-24T15:07:01;24.50;94.80
59961;DHT22;55902;-37.980;-63.602;2023-04-24T15:09:28;24.60;95.40
59961;DHT22;55902;-37.980;-63.602;2023-04-24T15:11:58;24.90;95.20
59961;DHT22;55902;-37.980;-63.602;2023-04-24T15:14:27;25.10;94.20
59961;DHT22;55902;-37.980;-63.602;2023-04-24T15:16:54;25.30;94.80
59961;DHT22;55902;-37.980;-63.602;2023-04-24T15:19:23;25.20;93.60
59961;DHT22;55902;-37.980;-63.602;2023-04-24T15:21:51;25.30;94.20
59961;DHT22;55902;-37.980;-63.602;2023-04-24T15:24:23;25.30;93.40
59961;DHT22;55902;-37.980;-63.602;2023-04-24T15:26:51;25.70;94.80
59961;DHT22;55902;-37.980;-63.602;2023-04-24T15:29:19;26.00;94.40
59961;DHT22;55902;-37.980;-63.602;2023-04-24T15:31:46;26.20;93.00
59961;DHT22;55902;-37.980;-63.602;2023-04-24T15:34:15;26.40;92.60